createdAt,value
2023-03-03T00:07:10.219Z,101926.75
2023-03-03T00:14:44.109Z,101931.75
2023-03-03T00:30:24.908Z,101938.25
2023-03-03T00:38:02.381Z,101918.88
2023-03-03T00:45:44.648Z,101917.53
2023-03-03T00:53:21.833Z,101918.16
2023-03-03T01:00:59.078Z,101909.63
2023-03-03T01:08:34.759Z,101907.78
2023-03-03T01:16:09.533Z,101900.84
2023-03-03T01:23:45.082Z,101901.06
2023-03-03T01:31:19.111Z,101897.75
2023-03-03T01:38:54.453Z,101886.31
2023-03-03T01:46:56.629Z,101877.00
2023-03-03T01:54:38.606Z,101876.84
2023-03-03T02:02:12.858Z,101870.22
2023-03-03T02:09:56.376Z,101874.34
2023-03-03T02:17:30.324Z,101873.78
2023-03-03T02:33:00.268Z,101893.25
2023-03-03T02:40:39.530Z,101894.75
2023-03-03T02:48:14.980Z,101885.81
2023-03-03T03:03:41.679Z,101884.28
2023-03-03T03:11:15.626Z,101881.50
2023-03-03T03:18:51.840Z,101895.53
2023-03-03T03:34:18.557Z,101922.75
2023-03-03T03:41:52.618Z,101910.56
2023-03-03T03:49:28.077Z,101914.44
2023-03-03T03:57:01.980Z,101896.31
2023-03-03T04:04:37.584Z,101890.28
2023-03-03T04:12:12.618Z,101878.78
2023-03-03T04:19:48.413Z,101878.44
2023-03-03T04:27:22.635Z,101880.25
2023-03-03T04:35:07.272Z,101869.22
2023-03-03T04:42:42.324Z,101871.28
2023-03-03T04:50:17.802Z,101866.97
2023-03-03T04:57:51.842Z,101881.19
2023-03-03T05:13:18.545Z,101867.19
2023-03-03T05:20:54.373Z,101861.81
2023-03-03T05:28:28.369Z,101865.22
2023-03-03T05:36:03.404Z,101852.44
2023-03-03T05:43:37.944Z,101863.19
2023-03-03T05:51:13.288Z,101886.56
2023-03-03T05:58:47.299Z,101895.81
2023-03-03T06:06:22.563Z,101886.09
2023-03-03T06:13:56.395Z,101896.13
2023-03-03T06:21:31.829Z,101889.84
2023-03-03T06:29:05.629Z,101910.28
2023-03-03T06:36:41.078Z,101920.75
2023-03-03T06:44:14.963Z,101922.81
2023-03-03T06:51:50.657Z,101919.31
2023-03-03T06:59:24.904Z,101928.75
2023-03-03T07:07:07.177Z,101939.94
2023-03-03T07:14:45.107Z,101943.69
2023-03-03T07:22:22.439Z,101965.59
2023-03-03T07:30:03.122Z,101946.63
2023-03-03T07:37:40.437Z,101940.47
2023-03-03T07:45:28.221Z,101973.81
2023-03-03T07:53:06.479Z,101979.94
2023-03-03T08:01:13.044Z,101976.34
2023-03-03T08:08:48.405Z,101980.72
2023-03-03T08:16:38.749Z,101980.38
2023-03-03T08:24:14.012Z,101973.56
2023-03-03T08:31:48.197Z,101968.31
2023-03-03T08:39:23.923Z,101968.97
2023-03-03T08:46:58.201Z,101971.78
2023-03-03T08:54:33.509Z,101985.25
2023-03-03T09:02:08.090Z,101981.72
2023-03-03T09:09:43.357Z,101981.03
2023-03-03T09:17:26.609Z,101970.78
2023-03-03T09:25:04.391Z,101970.41
2023-03-03T09:32:40.579Z,101972.03
2023-03-03T09:40:46.930Z,101972.03
2023-03-03T09:48:52.437Z,101969.75
2023-03-03T09:56:35.581Z,101986.84
2023-03-03T10:04:37.724Z,101980.56
2023-03-03T10:12:22.730Z,101974.47
2023-03-03T10:20:13.549Z,101977.22
2023-03-03T10:28:02.696Z,101964.41
2023-03-03T10:36:07.721Z,101954.03
2023-03-03T10:44:11.817Z,101958.00
2023-03-03T10:52:03.796Z,101963.47
2023-03-03T10:59:51.130Z,101960.00
2023-03-03T11:07:34.833Z,101965.00
2023-03-03T11:15:29.135Z,101959.03
2023-03-03T11:23:16.702Z,101965.44
2023-03-03T11:31:11.410Z,101954.25
2023-03-03T11:38:55.282Z,101958.59
2023-03-03T11:46:33.706Z,101952.47
2023-03-03T11:54:16.751Z,101955.50
2023-03-03T12:01:54.398Z,101942.84
2023-03-03T12:09:41.484Z,101927.88
2023-03-03T12:17:30.277Z,101917.06
2023-03-03T12:25:21.002Z,101914.84
2023-03-03T12:33:13.410Z,101897.06
2023-03-03T12:40:59.185Z,101885.00
2023-03-03T12:48:41.716Z,101875.59
2023-03-03T12:56:24.883Z,101874.44
2023-03-03T13:04:07.006Z,101877.38
2023-03-03T13:11:56.840Z,101864.50
2023-03-03T13:19:38.242Z,101857.78
2023-03-03T13:27:16.728Z,101860.81
2023-03-03T13:34:57.142Z,101852.78
2023-03-03T13:42:40.427Z,101845.44
2023-03-03T13:58:27.418Z,101836.19
2023-03-03T14:06:03.507Z,101819.09
2023-03-03T14:13:47.781Z,101818.91
2023-03-03T14:21:28.174Z,101812.56
2023-03-03T14:29:21.567Z,101800.81
2023-03-03T14:37:09.975Z,101813.50
2023-03-03T14:44:56.047Z,101789.09
2023-03-03T14:52:31.798Z,101793.53
2023-03-03T15:00:28.697Z,101786.91
2023-03-03T15:16:11.799Z,101770.69
2023-03-03T15:23:57.071Z,101763.97
2023-03-03T15:31:43.667Z,101750.09
2023-03-03T15:39:25.492Z,101744.25
2023-03-03T15:47:20.807Z,101735.13
2023-03-03T15:55:01.641Z,101730.19
2023-03-03T16:02:48.408Z,101720.72
2023-03-03T16:18:35.411Z,101722.63
2023-03-03T16:26:17.820Z,101716.31
2023-03-03T16:34:02.366Z,101710.88
2023-03-03T16:41:48.534Z,101714.44
2023-03-03T16:49:29.961Z,101717.91
2023-03-03T16:57:12.664Z,101695.66
2023-03-03T17:04:57.886Z,101701.69
2023-03-03T17:12:48.456Z,101715.72
2023-03-03T17:20:33.959Z,101711.84
2023-03-03T17:28:26.795Z,101705.44
2023-03-03T17:36:19.377Z,101708.75
2023-03-03T17:44:02.138Z,101717.97
2023-03-03T17:51:49.506Z,101712.59
2023-03-03T17:59:42.355Z,101712.31
2023-03-03T18:07:36.691Z,101707.50
2023-03-03T18:15:29.200Z,101702.06
2023-03-03T18:23:29.788Z,101697.50
2023-03-03T18:31:05.113Z,101686.13
2023-03-03T18:38:44.758Z,101678.38
2023-03-03T18:46:51.269Z,101682.75
2023-03-03T18:54:33.282Z,101697.88
2023-03-03T19:02:19.809Z,101681.28
2023-03-03T19:10:31.695Z,101685.03
2023-03-03T19:18:14.686Z,101679.91
2023-03-03T19:26:20.317Z,101670.25
2023-03-03T19:33:57.222Z,101678.34
2023-03-03T19:41:46.915Z,101659.84
2023-03-03T19:57:42.007Z,101666.22
2023-03-03T20:05:23.025Z,101672.53
2023-03-03T20:13:14.356Z,101666.41
2023-03-03T20:21:01.122Z,101664.59
2023-03-03T20:29:02.033Z,101665.22
2023-03-03T20:36:46.902Z,101647.38
2023-03-03T20:52:29.355Z,101644.56
2023-03-03T21:00:14.709Z,101628.72
2023-03-03T21:07:54.485Z,101626.91
2023-03-03T21:15:33.961Z,101628.81
2023-03-03T21:23:11.895Z,101627.91
2023-03-03T21:31:08.864Z,101616.44
2023-03-03T21:38:43.756Z,101604.03
2023-03-03T21:46:23.485Z,101596.94
2023-03-03T21:53:57.534Z,101586.31
2023-03-03T22:01:33.166Z,101591.31
2023-03-03T22:09:08.005Z,101577.69
2023-03-03T22:16:43.687Z,101570.44
2023-03-03T22:24:18.398Z,101561.41
2023-03-03T22:31:53.710Z,101548.78
2023-03-03T22:39:27.882Z,101544.25
2023-03-03T22:47:03.090Z,101540.53
2023-03-03T22:54:37.021Z,101530.63
2023-03-03T23:10:30.405Z,101496.44
2023-03-03T23:18:22.697Z,101496.75
2023-03-03T23:26:00.953Z,101482.22
2023-03-03T23:34:02.374Z,101456.13
2023-03-03T23:49:40.022Z,101456.00
2023-03-03T23:57:23.637Z,101443.03
